Aérodrome :
LOGIN :

S'inscrire | Disclaimer

   EN    FR    IT 

 










Légende :    VFR   VFR Marginal   IFR   IFR Intensif   IFR Très Intensif
Visi : 
Plafond : 
>= 8 km
>= 3000ft
5 à 8 km
1000 à 3000 ft
1500m à 5 km
500 à 1000 ft
800 à 1500m
200 à 500 ft
< 800m
< 200 ft
Symboles :   Orages  Brouillard  Fortes neiges  Fortes précipitations  Vent > 20 kt
SIGMETs :   Divers  Orages  Givrage  Turbulence  Onde Orograph.  Cendres Volcan.






- Altitude de l'aérodrome : 288 ft
- Code IATA : BZZ


EGVN - RAF Brize Norton

DERNIER METAR :
  • 232250Z 03003KT 4500 HZ BKN006 BKN008 06/05 Q1026 BECMG 3000 BKN004

METARs EXPIRÉS :
  • 232220Z 02005KT 4500 HZ BKN006 06/05 Q1026 BECMG 3000 BKN004 RMK YLO1 BECMG YLO2
  • 232150Z 02003KT 4800 HZ FEW006 BKN008 06/05 Q1026 BECMG 3000 BKN004 RMK GRN BECMG YLO2
  • 232120Z 01002KT 4800 BR FEW003 BKN008 06/05 Q1026 BECMG 3000 BKN004 RMK GRN BECMG YLO2
  • 232050Z 34003KT 4000 BR FEW003 BKN009 06/05 Q1027 BECMG 3000 BKN004 RMK GRN BECMG YLO2
  • 232020Z 30002KT 3500 BR SCT003 BKN009 06/05 Q1027 NOSIG RMK YLO2 YLO2

TAF AMD TAF EGVN
Valide du 23 à 21h jusqu'au 24 à 21h UTC


232054Z 2321/2421 35003KT 4000 BR BKN007
BECMG 2321/2323 3000 BKN004
PROB40
TEMPO 2323/2408 2000 -DZ BKN002
PROB30
TEMPO 2404/2408 0900 FG BKN001
BECMG 2408/2411 8000 HZ BKN007
PROB30
TEMPO 2411/2415 7000 -RADZ
PROB40 2415/2421 7000 HZ FEW007



MET'MAP, la Météo Aéronautique d'un coup d'oeil ! - Copyright ORBIFLY Décembre 2007 - Disclaimer

ORBIFLY MET'MAP TEAM :

Programmation & Développement : Alexandra Zaïnal
Sur une idée originale de : Baudouin d'Aumeries
Assistance à la programmation : Marc-Olivier Méhu
Soutien technique & logistique : Manuel Goepfert

Contact : metmap@orbifly.com




SOURCES & CREDITS :

   NOAA